createdAt,value
2022-09-22T04:44:32.140Z,2.60
2022-09-22T04:47:01.085Z,3.00
2022-09-22T04:49:27.523Z,2.50
2022-09-22T04:51:54.093Z,2.47
2022-09-22T04:54:20.539Z,2.63
2022-09-22T04:56:46.984Z,2.40
2022-09-22T04:59:13.409Z,2.30
2022-09-22T05:01:39.986Z,2.43
2022-09-22T05:04:06.508Z,2.00
2022-09-22T05:06:32.947Z,2.13
2022-09-22T05:08:59.568Z,2.43
2022-09-22T05:11:26.156Z,2.20
2022-09-22T05:13:52.633Z,2.40
2022-09-22T05:16:19.226Z,2.37
2022-09-22T05:18:46.473Z,2.50
2022-09-22T05:21:13.004Z,1.90
2022-09-22T05:23:39.946Z,2.63
2022-09-22T05:26:06.827Z,2.40
2022-09-22T05:28:33.310Z,1.70
2022-09-22T05:30:59.806Z,2.20
2022-09-22T05:33:26.335Z,2.00
2022-09-22T05:35:52.868Z,2.00
2022-09-22T05:38:19.345Z,1.87
2022-09-22T05:40:47.356Z,2.03
2022-09-22T05:43:14.211Z,1.70
2022-09-22T05:45:40.702Z,1.80
2022-09-22T05:48:07.190Z,1.80
2022-09-22T05:50:33.640Z,3.80
2022-09-22T05:53:07.372Z,2.57
2022-09-22T05:55:34.308Z,3.10
2022-09-22T05:58:00.907Z,1.63
2022-09-22T06:00:27.408Z,2.20
2022-09-22T06:02:53.988Z,1.60
2022-09-22T06:05:20.508Z,1.33
2022-09-22T06:07:49.002Z,1.50
2022-09-22T06:10:15.513Z,1.73
2022-09-22T06:12:42.007Z,1.70
2022-09-22T06:15:08.619Z,1.97
2022-09-22T06:17:35.039Z,2.17
2022-09-22T06:20:01.597Z,1.80
2022-09-22T06:22:28.037Z,2.20
2022-09-22T06:24:54.482Z,2.10
2022-09-22T06:27:20.924Z,1.97
2022-09-22T06:29:47.371Z,1.37
2022-09-22T06:32:13.803Z,1.60
2022-09-22T06:34:40.288Z,1.70
2022-09-22T06:37:09.780Z,2.10
2022-09-22T06:39:39.219Z,1.87
2022-09-22T06:42:05.946Z,2.07
2022-09-22T06:44:32.450Z,2.40
2022-09-22T06:46:59.702Z,1.47
2022-09-22T06:49:26.312Z,2.17
2022-09-22T06:51:52.815Z,2.30
2022-09-22T06:54:21.959Z,1.60
2022-09-22T06:56:49.460Z,1.43
2022-09-22T06:59:16.849Z,1.57
2022-09-22T07:01:44.500Z,1.90
2022-09-22T07:04:12.239Z,2.17
2022-09-22T07:06:40.672Z,1.60
2022-09-22T07:09:09.211Z,2.13
2022-09-22T07:11:39.756Z,1.93
2022-09-22T07:14:06.680Z,2.07
2022-09-22T07:16:33.199Z,1.97
2022-09-22T07:18:59.758Z,1.63
2022-09-22T07:21:35.308Z,1.77
2022-09-22T07:24:02.272Z,1.50
2022-09-22T07:26:32.531Z,1.80
2022-09-22T07:29:00.284Z,1.63
2022-09-22T07:31:28.971Z,2.36
2022-09-22T07:33:56.144Z,1.50
2022-09-22T07:36:23.996Z,1.23
2022-09-22T07:38:51.506Z,1.40
2022-09-22T07:41:19.385Z,1.23
2022-09-22T07:43:45.972Z,1.20
2022-09-22T07:46:13.291Z,1.30
2022-09-22T07:48:47.982Z,1.30
2022-09-22T07:51:19.774Z,1.37
2022-09-22T07:54:07.379Z,1.63
2022-09-22T07:56:34.476Z,1.33
2022-09-22T07:59:09.897Z,1.10
2022-09-22T08:01:37.348Z,1.67
2022-09-22T08:04:04.652Z,1.80
2022-09-22T08:06:32.204Z,1.50
2022-09-22T08:09:00.289Z,1.70
2022-09-22T08:11:28.363Z,1.60
2022-09-22T08:13:57.162Z,1.70
2022-09-22T08:16:26.100Z,1.50
2022-09-22T08:18:59.105Z,1.60
2022-09-22T08:21:26.450Z,1.30
2022-09-22T08:23:53.241Z,1.83
2022-09-22T08:26:22.992Z,1.50
2022-09-22T08:28:53.003Z,1.33
2022-09-22T08:31:22.971Z,1.57
2022-09-22T08:33:52.013Z,1.63
2022-09-22T08:36:18.744Z,1.70
2022-09-22T08:38:49.511Z,1.30
2022-09-22T08:41:27.567Z,1.27
2022-09-22T08:43:56.911Z,1.60
2022-09-22T08:46:26.204Z,1.00
2022-09-22T08:49:14.169Z,1.40
2022-09-22T08:51:51.947Z,1.50
2022-09-22T08:54:29.056Z,1.30
2022-09-22T08:56:58.231Z,1.33
2022-09-22T08:59:30.222Z,1.60
2022-09-22T09:02:15.435Z,1.60
2022-09-22T09:04:42.574Z,1.60
2022-09-22T09:07:16.055Z,1.20
2022-09-22T09:09:48.716Z,1.70
2022-09-22T09:12:24.550Z,1.10
2022-09-22T09:14:56.808Z,1.43
2022-09-22T09:17:25.921Z,1.07
2022-09-22T09:19:55.455Z,1.50
2022-09-22T09:22:28.235Z,1.37
2022-09-22T09:28:13.474Z,1.40
2022-09-22T09:30:51.221Z,1.17
2022-09-22T09:33:23.676Z,1.30
2022-09-22T09:35:52.066Z,1.43
2022-09-22T09:38:21.590Z,1.40
2022-09-22T09:40:52.934Z,1.13
2022-09-22T09:43:21.826Z,1.17
2022-09-22T09:46:04.095Z,1.33
2022-09-22T09:48:36.480Z,1.30
2022-09-22T09:51:03.637Z,1.43
2022-09-22T09:53:41.038Z,1.30
2022-09-22T09:56:14.219Z,1.10
2022-09-22T09:59:12.733Z,1.20
2022-09-22T10:01:42.117Z,1.10
2022-09-22T10:04:23.718Z,0.97
2022-09-22T10:06:50.763Z,1.20
2022-09-22T10:09:28.352Z,1.37
2022-09-22T10:12:01.744Z,1.17
2022-09-22T10:14:37.224Z,0.93
2022-09-22T10:17:04.026Z,1.40
2022-09-22T10:19:31.983Z,1.93
2022-09-22T10:22:30.509Z,1.00
2022-09-22T10:24:58.440Z,1.00
2022-09-22T10:27:25.922Z,1.10
2022-09-22T10:30:27.556Z,1.00
2022-09-22T10:33:03.663Z,1.20
2022-09-22T10:35:30.584Z,1.00
2022-09-22T10:37:58.528Z,1.00
2022-09-22T10:40:25.888Z,1.10
2022-09-22T10:42:52.917Z,0.90
2022-09-22T10:45:19.647Z,1.30
2022-09-22T10:47:51.996Z,1.08
2022-09-22T10:50:18.425Z,1.20
2022-09-22T10:52:47.611Z,1.10
2022-09-22T10:55:14.063Z,1.10
2022-09-22T10:57:58.792Z,0.90
2022-09-22T11:00:28.608Z,1.00
2022-09-22T11:02:57.683Z,1.00
2022-09-22T11:05:52.107Z,1.07
2022-09-22T11:08:38.936Z,1.03
2022-09-22T11:11:39.880Z,0.97
2022-09-22T11:14:12.200Z,1.00
2022-09-22T11:16:49.053Z,1.00
2022-09-22T11:19:34.316Z,1.13
2022-09-22T11:22:13.053Z,1.10
2022-09-22T11:24:50.497Z,1.00
2022-09-22T11:27:29.001Z,1.10
2022-09-22T11:30:10.499Z,1.10
2022-09-22T11:32:54.201Z,1.10
2022-09-22T11:35:27.097Z,1.10
2022-09-22T11:38:13.195Z,0.90
2022-09-22T11:40:51.685Z,1.30
2022-09-22T11:43:18.651Z,1.17
2022-09-22T11:46:01.681Z,1.00
2022-09-22T11:48:28.140Z,0.80
2022-09-22T11:51:03.749Z,0.90
2022-09-22T11:53:33.187Z,1.20
2022-09-22T11:56:00.068Z,1.23
2022-09-22T11:58:28.049Z,0.80
2022-09-22T12:01:13.400Z,0.90
2022-09-22T12:03:55.594Z,0.93
2022-09-22T12:06:25.026Z,1.07
2022-09-22T12:11:26.324Z,1.00
2022-09-22T12:13:53.823Z,1.20
2022-09-22T12:16:26.194Z,1.23
2022-09-22T12:18:58.868Z,1.30
2022-09-22T12:36:08.363Z,1.10
2022-09-22T12:38:34.912Z,1.10
2022-09-22T12:41:04.213Z,0.90
2022-09-22T12:43:31.452Z,0.97
2022-09-22T12:45:58.686Z,1.00
2022-09-22T12:48:27.313Z,1.20
2022-09-22T12:51:13.696Z,1.07
2022-09-22T12:53:43.146Z,1.00
2022-09-22T12:56:29.751Z,0.87
2022-09-22T12:58:56.244Z,0.87
2022-09-22T13:01:33.416Z,1.17
2022-09-22T13:04:05.859Z,1.10
2022-09-22T13:06:33.804Z,1.10
2022-09-22T13:09:01.024Z,1.10
2022-09-22T13:11:46.004Z,1.07
2022-09-22T13:14:31.134Z,0.97
2022-09-22T13:16:57.997Z,0.87
2022-09-22T13:19:24.477Z,1.10
2022-09-22T13:21:50.905Z,0.90
2022-09-22T13:24:19.497Z,0.90
2022-09-22T13:26:45.990Z,0.80
2022-09-22T13:29:21.724Z,0.90
2022-09-22T13:31:52.881Z,1.10
2022-09-22T13:34:25.676Z,1.10
2022-09-22T13:37:00.351Z,1.50
2022-09-22T13:39:28.336Z,1.20
2022-09-22T13:41:59.241Z,1.00
2022-09-22T13:44:28.535Z,0.73
2022-09-22T13:46:55.832Z,0.90
2022-09-22T13:49:37.144Z,0.60
2022-09-22T13:52:08.804Z,0.73
2022-09-22T13:54:36.822Z,0.90
2022-09-22T13:57:05.028Z,0.97
2022-09-22T13:59:36.176Z,0.70
2022-09-22T14:02:05.631Z,0.80
2022-09-22T14:04:32.674Z,1.00
2022-09-22T14:07:01.018Z,0.90
2022-09-22T14:09:27.518Z,0.60
2022-09-22T14:11:56.465Z,0.87
2022-09-22T14:14:24.468Z,0.87
2022-09-22T14:16:59.541Z,0.90
2022-09-22T14:19:35.815Z,1.00
2022-09-22T14:22:03.736Z,0.90
2022-09-22T14:24:34.294Z,0.90
2022-09-22T14:27:05.454Z,1.50
2022-09-22T14:29:33.479Z,0.97
2022-09-22T14:32:13.358Z,2.63
2022-09-22T14:34:40.515Z,1.00
2022-09-22T14:37:16.538Z,1.00
2022-09-22T14:39:44.084Z,0.80
2022-09-22T14:42:17.673Z,0.57
2022-09-22T14:44:46.181Z,0.80
2022-09-22T14:47:26.918Z,0.87
2022-09-22T14:50:06.557Z,0.70
2022-09-22T14:52:34.586Z,0.83
2022-09-22T14:55:06.801Z,1.03
2022-09-22T14:57:34.422Z,0.70
2022-09-22T15:00:19.625Z,1.00
2022-09-22T15:02:49.978Z,0.90
2022-09-22T15:05:29.901Z,0.67
2022-09-22T15:07:57.658Z,0.97
2022-09-22T15:10:28.641Z,0.83
2022-09-22T15:12:56.130Z,0.80
2022-09-22T15:15:22.608Z,0.70
2022-09-22T15:18:08.565Z,1.03
2022-09-22T15:20:41.128Z,0.67
2022-09-22T15:23:10.030Z,0.97
2022-09-22T15:25:36.520Z,0.90
2022-09-22T15:28:09.020Z,0.80
2022-09-22T15:30:35.434Z,0.90
2022-09-22T15:33:03.802Z,0.80
2022-09-22T15:35:31.516Z,1.70
2022-09-22T15:37:58.026Z,1.57
2022-09-22T15:40:24.646Z,1.17
2022-09-22T15:43:11.824Z,1.60
2022-09-22T15:45:39.398Z,1.30
2022-09-22T15:48:05.903Z,1.30
2022-09-22T15:50:32.475Z,1.67
2022-09-22T15:52:58.985Z,1.10
2022-09-22T15:55:25.510Z,0.80
2022-09-22T15:57:54.731Z,1.07
2022-09-22T16:00:22.563Z,1.20
2022-09-22T16:02:49.103Z,0.90
2022-09-22T16:05:18.004Z,0.90
2022-09-22T16:07:49.711Z,0.83
2022-09-22T16:10:17.386Z,0.90
2022-09-22T16:12:44.207Z,0.80
2022-09-22T16:15:14.392Z,0.87
2022-09-22T16:17:42.917Z,1.00
2022-09-22T16:20:13.961Z,1.30
2022-09-22T16:22:40.465Z,1.10
2022-09-22T16:25:07.895Z,1.30
2022-09-22T16:27:36.196Z,1.10
2022-09-22T16:30:02.742Z,1.00
2022-09-22T16:32:29.671Z,0.90
2022-09-22T16:34:56.092Z,0.90
2022-09-22T16:37:22.570Z,0.80
2022-09-22T16:39:49.218Z,0.97
2022-09-22T16:42:21.554Z,0.70
2022-09-22T16:44:49.863Z,0.87
2022-09-22T16:47:22.956Z,0.90
2022-09-22T16:49:51.428Z,0.90
2022-09-22T16:52:22.602Z,0.80
2022-09-22T16:54:49.121Z,0.77
2022-09-22T16:57:15.602Z,1.07
2022-09-22T16:59:42.020Z,0.88
2022-09-22T17:02:09.965Z,1.00
2022-09-22T17:04:36.635Z,0.97
2022-09-22T17:07:03.135Z,0.90
2022-09-22T17:09:32.178Z,1.00
2022-09-22T17:11:58.623Z,1.03
2022-09-22T17:14:25.587Z,1.07
2022-09-22T17:16:52.786Z,0.80
2022-09-22T17:19:20.416Z,0.80
2022-09-22T17:21:47.778Z,0.90
2022-09-22T17:24:14.907Z,0.80
2022-09-22T17:26:46.861Z,0.77
2022-09-22T17:29:17.414Z,1.00
2022-09-22T17:31:44.597Z,0.90
2022-09-22T17:34:12.839Z,0.90
2022-09-22T17:36:39.733Z,0.93
2022-09-22T17:39:07.355Z,0.80
2022-09-22T17:41:34.058Z,0.80
2022-09-22T17:44:02.931Z,0.90
2022-09-22T17:46:31.073Z,0.93
2022-09-22T17:49:15.817Z,0.90
2022-09-22T17:52:01.552Z,0.70
2022-09-22T17:54:47.519Z,0.80
2022-09-22T17:57:20.832Z,0.90
2022-09-22T17:59:47.564Z,1.00
2022-09-22T18:02:15.492Z,0.97
2022-09-22T18:04:42.727Z,1.20
2022-09-22T18:07:10.811Z,1.40
2022-09-22T18:09:38.812Z,1.13
2022-09-22T18:12:06.231Z,1.40
2022-09-22T18:14:34.387Z,1.20
2022-09-22T18:17:05.136Z,1.33
2022-09-22T18:19:36.593Z,1.27
2022-09-22T18:22:07.889Z,1.10
2022-09-22T18:24:34.773Z,1.10
2022-09-22T18:27:03.924Z,1.00
2022-09-22T18:29:31.941Z,1.10
2022-09-22T18:31:59.536Z,1.10
2022-09-22T18:34:29.964Z,0.97
2022-09-22T18:36:56.681Z,1.47
2022-09-22T18:39:23.092Z,0.97
2022-09-22T18:41:49.898Z,1.10
2022-09-22T18:44:18.428Z,1.17
2022-09-22T18:46:48.246Z,0.90
2022-09-22T18:49:16.610Z,1.00
2022-09-22T18:51:44.599Z,0.93
2022-09-22T18:54:15.407Z,0.90
2022-09-22T18:56:43.532Z,0.87
2022-09-22T18:59:11.505Z,1.00
2022-09-22T19:01:38.309Z,1.00
2022-09-22T19:04:05.830Z,1.00
2022-09-22T19:06:52.297Z,0.90
2022-09-22T19:09:18.752Z,0.97
2022-09-22T19:11:45.444Z,1.20
2022-09-22T19:14:11.869Z,1.00
2022-09-22T19:16:42.237Z,1.07
2022-09-22T19:19:08.929Z,1.07
2022-09-22T19:21:38.771Z,1.03
2022-09-22T19:24:06.373Z,1.10
2022-09-22T19:26:32.940Z,1.20
2022-09-22T19:28:59.396Z,1.33
2022-09-22T19:31:25.838Z,1.13
2022-09-22T19:33:52.344Z,1.43
2022-09-22T19:36:18.815Z,1.00
2022-09-22T19:38:45.321Z,1.07
2022-09-22T19:41:12.321Z,1.03
2022-09-22T19:43:42.608Z,1.17
2022-09-22T19:46:09.325Z,1.20
2022-09-22T19:48:36.231Z,1.70
2022-09-22T19:51:03.812Z,1.40
2022-09-22T19:53:30.333Z,1.50
2022-09-22T19:55:56.771Z,1.47
2022-09-22T19:58:23.202Z,1.40
2022-09-22T20:00:49.891Z,1.40
2022-09-22T20:03:16.358Z,1.47
2022-09-22T20:05:42.831Z,1.60
2022-09-22T20:08:16.228Z,1.20
2022-09-22T20:10:43.684Z,1.50
2022-09-22T20:13:30.068Z,1.83
2022-09-22T20:15:56.999Z,1.53
2022-09-22T20:18:23.454Z,1.40
2022-09-22T20:20:51.508Z,1.33
2022-09-22T20:23:20.180Z,0.90
2022-09-22T20:25:47.212Z,1.30
2022-09-22T20:42:56.731Z,1.55
2022-09-22T20:45:23.265Z,2.50
2022-09-22T20:47:49.908Z,2.00
2022-09-22T20:50:16.384Z,2.20
2022-09-22T20:52:42.950Z,1.60
2022-09-22T20:55:10.622Z,1.70
2022-09-22T20:57:38.162Z,1.90
2022-09-22T21:00:04.796Z,1.87
2022-09-22T21:02:33.508Z,1.63
2022-09-22T21:05:00.062Z,1.20
2022-09-22T21:07:26.486Z,1.57
2022-09-22T21:10:11.663Z,1.60
2022-09-22T21:12:38.469Z,1.40
2022-09-22T21:15:05.168Z,1.50
2022-09-22T21:17:32.862Z,1.67
2022-09-22T21:19:59.363Z,1.80
2022-09-22T21:24:54.921Z,1.70
